createdAt,value
2023-04-27T00:00:09.842Z,65.25
2023-04-27T00:01:09.829Z,65.23
2023-04-27T00:02:09.884Z,65.38
2023-04-27T00:03:10.077Z,65.59
2023-04-27T00:04:09.947Z,65.65
2023-04-27T00:05:09.873Z,65.73
2023-04-27T00:06:09.986Z,65.78
2023-04-27T00:07:09.765Z,66.06
2023-04-27T00:08:09.764Z,66.26
2023-04-27T00:09:09.740Z,66.25
2023-04-27T00:10:09.721Z,66.19
2023-04-27T00:11:09.736Z,66.24
2023-04-27T00:12:09.688Z,66.16
2023-04-27T00:13:09.676Z,66.34
2023-04-27T00:14:09.677Z,66.40
2023-04-27T00:15:09.676Z,66.20
2023-04-27T00:16:09.709Z,66.22
2023-04-27T00:17:09.631Z,66.11
2023-04-27T00:18:09.712Z,66.01
2023-04-27T00:19:09.612Z,66.37
2023-04-27T00:20:09.596Z,66.46
2023-04-27T00:21:09.597Z,66.38
2023-04-27T00:22:09.573Z,66.45
2023-04-27T00:23:09.544Z,66.24
2023-04-27T00:24:09.566Z,66.34
2023-04-27T00:25:09.525Z,66.40
2023-04-27T00:26:09.504Z,66.61
2023-04-27T00:27:09.546Z,66.56
2023-04-27T00:28:09.491Z,66.59
2023-04-27T00:29:09.471Z,66.58
2023-04-27T00:30:09.484Z,66.62
2023-04-27T00:31:09.476Z,66.79
2023-04-27T00:32:09.510Z,66.85
2023-04-27T00:33:09.439Z,66.72
2023-04-27T00:34:09.406Z,66.74
2023-04-27T00:35:09.403Z,66.89
2023-04-27T00:36:09.388Z,67.06
2023-04-27T00:37:09.402Z,66.96
2023-04-27T00:38:09.373Z,67.28
2023-04-27T00:39:09.359Z,67.29
2023-04-27T00:40:09.334Z,66.89
2023-04-27T00:41:09.337Z,66.26
2023-04-27T00:42:09.322Z,66.18
2023-04-27T00:43:09.312Z,66.22
2023-04-27T00:44:09.279Z,66.29
2023-04-27T00:45:09.295Z,66.53
2023-04-27T00:46:09.315Z,66.65
2023-04-27T00:47:09.248Z,66.84
2023-04-27T00:48:09.315Z,66.81
2023-04-27T00:49:09.232Z,66.93
2023-04-27T00:50:09.230Z,67.11
2023-04-27T00:51:09.217Z,67.36
2023-04-27T00:52:09.189Z,67.35
2023-04-27T00:53:09.181Z,67.24
2023-04-27T00:54:09.160Z,67.48
2023-04-27T00:55:09.152Z,67.08
2023-04-27T00:56:09.150Z,66.90
2023-04-27T00:57:09.130Z,67.08
2023-04-27T00:58:09.103Z,67.45
2023-04-27T00:59:09.122Z,67.50
2023-04-27T01:00:09.162Z,67.37
2023-04-27T01:01:09.106Z,67.29
2023-04-27T01:02:09.119Z,67.19
2023-04-27T01:03:09.088Z,67.24
2023-04-27T01:04:09.318Z,67.21
2023-04-27T01:05:09.034Z,67.10
2023-04-27T01:06:09.031Z,67.12
2023-04-27T01:07:09.030Z,67.08
2023-04-27T01:08:09.006Z,67.02
2023-04-27T01:09:08.965Z,66.89
2023-04-27T01:10:08.948Z,67.13
2023-04-27T01:11:08.948Z,67.31
2023-04-27T01:12:08.952Z,67.10
2023-04-27T01:13:08.903Z,66.97
2023-04-27T01:14:08.899Z,66.78
2023-04-27T01:15:08.920Z,66.87
2023-04-27T01:16:08.897Z,66.84
2023-04-27T01:17:08.966Z,66.83
2023-04-27T01:18:08.871Z,66.90
2023-04-27T01:19:08.917Z,66.93
2023-04-27T01:20:08.858Z,66.99
2023-04-27T01:21:08.798Z,67.11
2023-04-27T01:22:08.954Z,67.20
2023-04-27T01:23:08.777Z,67.51
2023-04-27T01:24:08.769Z,67.60
2023-04-27T01:25:08.775Z,67.53
2023-04-27T01:26:08.733Z,67.88
2023-04-27T01:27:08.751Z,67.91
2023-04-27T01:28:08.721Z,67.72
2023-04-27T01:29:08.721Z,67.42
2023-04-27T01:30:08.702Z,67.01
2023-04-27T01:31:08.729Z,67.02
2023-04-27T01:32:08.714Z,66.97
2023-04-27T01:33:08.803Z,66.92
2023-04-27T01:34:08.644Z,67.03
2023-04-27T01:35:08.639Z,67.00
2023-04-27T01:36:08.626Z,67.10
2023-04-27T01:37:08.606Z,67.23
2023-04-27T01:38:08.582Z,67.45
2023-04-27T01:39:08.581Z,67.51
2023-04-27T01:40:08.563Z,67.46
2023-04-27T01:41:08.539Z,67.64
2023-04-27T01:42:08.546Z,67.68
2023-04-27T01:43:08.520Z,67.66
2023-04-27T01:44:08.509Z,67.66
2023-04-27T01:45:08.501Z,67.83
2023-04-27T01:46:08.539Z,67.91
2023-04-27T01:47:08.476Z,67.87
2023-04-27T01:48:08.504Z,67.94
2023-04-27T01:49:08.453Z,68.03
2023-04-27T01:50:08.443Z,68.14
2023-04-27T01:51:08.434Z,68.34
2023-04-27T01:52:08.414Z,68.58
2023-04-27T01:53:08.394Z,68.64
2023-04-27T01:54:08.373Z,68.79
2023-04-27T01:55:08.371Z,68.94
2023-04-27T01:56:08.361Z,68.70
2023-04-27T01:57:08.341Z,68.70
2023-04-27T01:58:08.329Z,68.37
2023-04-27T01:59:08.326Z,68.56
2023-04-27T02:00:08.324Z,68.32
2023-04-27T02:01:08.314Z,68.08
2023-04-27T02:02:08.362Z,68.10
2023-04-27T02:03:08.389Z,68.28
2023-04-27T02:04:08.487Z,68.28
2023-04-27T02:05:08.269Z,68.31
2023-04-27T02:06:08.233Z,68.40
2023-04-27T02:07:08.209Z,68.44
2023-04-27T02:08:08.216Z,68.74
2023-04-27T02:09:08.195Z,68.63
2023-04-27T02:10:08.190Z,68.64
2023-04-27T02:11:08.172Z,68.74
2023-04-27T02:12:08.193Z,68.76
2023-04-27T02:13:08.142Z,68.83
2023-04-27T02:14:08.124Z,68.96
2023-04-27T02:15:08.147Z,69.00
2023-04-27T02:16:08.169Z,69.17
2023-04-27T02:17:08.086Z,69.41
2023-04-27T02:18:08.120Z,69.59
2023-04-27T02:19:08.048Z,69.48
2023-04-27T02:20:08.045Z,69.50
2023-04-27T02:21:08.039Z,69.61
2023-04-27T02:22:08.024Z,69.76
2023-04-27T02:23:08.031Z,69.73
2023-04-27T02:24:07.999Z,69.78
2023-04-27T02:25:07.994Z,69.77
2023-04-27T02:26:07.971Z,69.90
2023-04-27T02:27:07.957Z,70.04
2023-04-27T02:28:07.954Z,70.03
2023-04-27T02:29:08.002Z,70.13
2023-04-27T02:30:07.926Z,70.16
2023-04-27T02:31:07.927Z,70.22
2023-04-27T02:32:07.936Z,70.26
2023-04-27T02:33:07.960Z,70.29
2023-04-27T02:34:07.872Z,70.51
2023-04-27T02:35:07.889Z,70.66
2023-04-27T02:36:07.830Z,70.52
2023-04-27T02:37:07.825Z,70.49
2023-04-27T02:38:07.879Z,70.52
2023-04-27T02:39:07.812Z,70.47
2023-04-27T02:40:07.814Z,70.39
2023-04-27T02:41:07.772Z,70.31
2023-04-27T02:42:07.817Z,70.46
2023-04-27T02:43:07.754Z,70.64
2023-04-27T02:44:07.742Z,70.87
2023-04-27T02:45:07.733Z,71.03
2023-04-27T02:46:07.797Z,71.04
2023-04-27T02:47:07.751Z,70.85
2023-04-27T02:48:07.798Z,70.76
2023-04-27T02:49:07.676Z,70.84
2023-04-27T02:50:07.663Z,70.97
2023-04-27T02:51:07.704Z,71.04
2023-04-27T02:52:07.636Z,70.93
2023-04-27T02:53:07.629Z,71.00
2023-04-27T02:54:07.610Z,71.06
2023-04-27T02:55:07.582Z,71.16
2023-04-27T02:56:07.579Z,71.13
2023-04-27T02:57:07.594Z,71.04
2023-04-27T02:58:07.557Z,70.90
2023-04-27T02:59:07.539Z,70.90
2023-04-27T03:00:07.591Z,71.11
2023-04-27T03:01:07.561Z,71.11
2023-04-27T03:02:07.496Z,71.10
2023-04-27T03:03:07.692Z,71.03
2023-04-27T03:04:07.614Z,71.02
2023-04-27T03:05:07.456Z,71.00
2023-04-27T03:06:07.442Z,71.03
2023-04-27T03:07:07.423Z,71.07
2023-04-27T03:08:07.434Z,71.05
2023-04-27T03:09:07.410Z,71.06
2023-04-27T03:10:07.414Z,71.20
2023-04-27T03:11:07.387Z,71.18
2023-04-27T03:12:07.376Z,71.21
2023-04-27T03:13:07.347Z,71.35
2023-04-27T03:14:07.345Z,71.46
2023-04-27T03:15:07.331Z,71.39
2023-04-27T03:16:07.338Z,71.46
2023-04-27T03:17:07.320Z,71.35
2023-04-27T03:18:07.348Z,71.35
2023-04-27T03:19:07.281Z,71.43
2023-04-27T03:20:07.262Z,71.52
2023-04-27T03:21:07.283Z,71.58
2023-04-27T03:22:07.228Z,71.60
2023-04-27T03:23:07.270Z,71.62
2023-04-27T03:24:07.269Z,71.70
2023-04-27T03:25:07.193Z,71.79
2023-04-27T03:26:07.181Z,71.73
2023-04-27T03:27:07.183Z,71.63
2023-04-27T03:28:07.153Z,71.63
2023-04-27T03:29:07.149Z,71.65
2023-04-27T03:30:07.136Z,71.57
2023-04-27T03:31:07.125Z,71.56
2023-04-27T03:32:07.245Z,71.51
2023-04-27T03:33:07.175Z,71.49
2023-04-27T03:34:07.099Z,71.55
2023-04-27T03:35:07.076Z,71.59
2023-04-27T03:36:07.059Z,71.55
2023-04-27T03:37:07.051Z,71.46
2023-04-27T03:38:07.029Z,71.45
2023-04-27T03:39:07.017Z,71.41
2023-04-27T03:40:06.999Z,71.50
2023-04-27T03:41:07.041Z,71.61
2023-04-27T03:42:06.999Z,71.56
2023-04-27T03:43:06.951Z,71.34
2023-04-27T03:44:06.967Z,71.23
2023-04-27T03:45:06.994Z,71.14
2023-04-27T03:46:06.936Z,71.15
2023-04-27T03:47:06.909Z,71.16
2023-04-27T03:48:07.063Z,70.83
2023-04-27T03:49:06.893Z,70.47
2023-04-27T03:50:06.873Z,70.18
2023-04-27T03:51:06.906Z,70.21
2023-04-27T03:52:06.872Z,70.30
2023-04-27T03:53:06.867Z,70.44
2023-04-27T03:54:06.817Z,70.53
2023-04-27T03:55:06.812Z,70.64
2023-04-27T03:56:06.810Z,70.80
2023-04-27T03:57:06.783Z,70.95
2023-04-27T03:58:06.755Z,71.06
2023-04-27T03:59:06.761Z,71.14
2023-04-27T04:00:06.761Z,71.12
2023-04-27T04:01:06.757Z,71.04
2023-04-27T04:02:06.791Z,70.98
2023-04-27T04:03:07.115Z,70.92
2023-04-27T04:04:06.873Z,70.81
2023-04-27T04:05:06.779Z,70.79
2023-04-27T04:06:06.671Z,70.80
2023-04-27T04:07:06.669Z,70.79
2023-04-27T04:08:06.635Z,70.82
2023-04-27T04:09:06.615Z,70.90
2023-04-27T04:10:06.625Z,70.86
2023-04-27T04:11:06.608Z,70.77
2023-04-27T04:12:06.587Z,70.69
2023-04-27T04:13:06.580Z,70.78
2023-04-27T04:14:06.582Z,70.73
2023-04-27T04:15:06.565Z,70.81
2023-04-27T04:16:06.580Z,70.52
2023-04-27T04:17:06.524Z,70.69
2023-04-27T04:18:06.533Z,70.97
2023-04-27T04:19:06.511Z,71.20
2023-04-27T04:20:06.490Z,71.19
2023-04-27T04:21:06.473Z,71.31
2023-04-27T04:22:06.450Z,71.42
2023-04-27T04:23:06.453Z,71.47
2023-04-27T04:24:06.431Z,71.50
2023-04-27T04:25:06.429Z,71.55
2023-04-27T04:26:06.421Z,71.49
2023-04-27T04:27:06.435Z,71.35
2023-04-27T04:28:06.374Z,71.24
2023-04-27T04:29:07.191Z,71.09
2023-04-27T04:30:06.559Z,71.16
2023-04-27T04:31:06.391Z,71.13
2023-04-27T04:32:06.357Z,71.13
2023-04-27T04:33:06.341Z,71.13
2023-04-27T04:34:06.300Z,71.29
2023-04-27T04:35:06.313Z,71.40
2023-04-27T04:36:06.341Z,71.46
2023-04-27T04:37:06.288Z,71.53
2023-04-27T04:38:06.274Z,71.55
2023-04-27T04:39:06.294Z,71.60
2023-04-27T04:40:06.233Z,71.60
2023-04-27T04:41:06.269Z,71.53
2023-04-27T04:42:06.285Z,71.30
2023-04-27T04:43:06.273Z,71.26
2023-04-27T04:44:06.232Z,71.35
2023-04-27T04:45:06.171Z,71.30
2023-04-27T04:46:06.212Z,71.24
2023-04-27T04:47:06.143Z,71.34
2023-04-27T04:48:06.189Z,71.50
2023-04-27T04:49:06.123Z,71.59
2023-04-27T04:50:06.097Z,71.64
2023-04-27T04:51:06.090Z,71.59
2023-04-27T04:52:06.072Z,71.50
2023-04-27T04:53:06.065Z,71.33
2023-04-27T04:54:06.056Z,71.16
2023-04-27T04:55:06.027Z,71.18
2023-04-27T04:56:06.026Z,71.12
2023-04-27T04:57:06.019Z,71.12
2023-04-27T04:58:06.004Z,71.10
2023-04-27T04:59:05.977Z,71.10
2023-04-27T05:00:05.973Z,71.14
2023-04-27T05:01:05.991Z,71.06
2023-04-27T05:02:05.948Z,70.87
2023-04-27T05:03:06.051Z,70.72
2023-04-27T05:04:05.991Z,70.73
2023-04-27T05:05:05.902Z,70.71
2023-04-27T05:06:05.914Z,70.69
2023-04-27T05:07:05.876Z,70.56
2023-04-27T05:08:05.850Z,70.28
2023-04-27T05:09:05.858Z,69.98
2023-04-27T05:10:05.832Z,69.84
2023-04-27T05:11:05.845Z,69.73
2023-04-27T05:12:05.809Z,69.86
2023-04-27T05:13:07.186Z,69.86
2023-04-27T05:14:05.783Z,69.83
2023-04-27T05:15:05.772Z,69.67
2023-04-27T05:16:05.796Z,69.59
2023-04-27T05:17:05.747Z,69.71
2023-04-27T05:18:05.802Z,69.61
2023-04-27T05:19:05.734Z,69.73
2023-04-27T05:20:06.020Z,69.82
2023-04-27T05:21:05.708Z,69.78
2023-04-27T05:22:05.689Z,70.02
2023-04-27T05:23:05.674Z,70.15
2023-04-27T05:24:05.660Z,70.20
2023-04-27T05:25:05.636Z,70.17
2023-04-27T05:26:05.635Z,70.04
2023-04-27T05:27:05.619Z,69.82
2023-04-27T05:28:05.606Z,69.47
2023-04-27T05:29:05.607Z,69.28
2023-04-27T05:30:05.579Z,69.23
2023-04-27T05:31:05.559Z,69.26
2023-04-27T05:32:05.575Z,69.32
2023-04-27T05:33:05.607Z,69.34
2023-04-27T05:34:05.526Z,69.42
2023-04-27T05:35:05.533Z,69.43
2023-04-27T05:36:05.500Z,69.50
2023-04-27T05:37:05.498Z,69.61
2023-04-27T05:38:05.474Z,69.60
2023-04-27T05:39:05.460Z,69.50
2023-04-27T05:40:05.471Z,69.38
2023-04-27T05:41:05.478Z,69.06
2023-04-27T05:42:05.436Z,69.05
2023-04-27T05:43:05.687Z,68.89
2023-04-27T05:44:05.419Z,68.84
2023-04-27T05:45:05.399Z,68.77
2023-04-27T05:46:05.431Z,68.59
2023-04-27T05:47:05.358Z,68.47
2023-04-27T05:48:05.395Z,68.33
2023-04-27T05:49:05.331Z,68.11
2023-04-27T05:50:05.315Z,68.16
2023-04-27T05:51:05.339Z,68.22
2023-04-27T05:52:05.304Z,68.39
2023-04-27T05:53:05.292Z,68.00
2023-04-27T05:54:05.273Z,68.40
2023-04-27T05:55:05.269Z,68.71
2023-04-27T05:56:05.270Z,68.88
2023-04-27T05:57:05.229Z,69.07
2023-04-27T05:58:08.934Z,69.18
2023-04-27T05:59:05.226Z,68.99
2023-04-27T06:00:05.183Z,68.57
2023-04-27T06:01:05.197Z,68.42
2023-04-27T06:02:05.212Z,68.17
2023-04-27T06:03:05.374Z,68.03
2023-04-27T06:04:05.287Z,68.10
2023-04-27T06:05:05.171Z,68.47
2023-04-27T06:06:05.107Z,68.49
2023-04-27T06:07:05.161Z,68.21
2023-04-27T06:08:05.086Z,68.36
2023-04-27T06:09:05.066Z,68.42
2023-04-27T06:10:05.073Z,68.52
2023-04-27T06:11:05.044Z,68.63
2023-04-27T06:12:05.087Z,68.80
2023-04-27T06:13:05.014Z,68.77
2023-04-27T06:14:05.003Z,68.75
2023-04-27T06:15:04.991Z,68.87
2023-04-27T06:16:05.028Z,69.18
2023-04-27T06:17:04.975Z,69.43
2023-04-27T06:18:04.985Z,69.57
2023-04-27T06:19:04.954Z,69.56
2023-04-27T06:20:04.933Z,69.50
2023-04-27T06:21:04.946Z,69.60
2023-04-27T06:22:04.907Z,69.80
2023-04-27T06:23:04.893Z,70.11
2023-04-27T06:24:04.873Z,70.00
2023-04-27T06:25:04.895Z,69.75
2023-04-27T06:26:04.864Z,69.72
2023-04-27T06:27:04.883Z,69.81
2023-04-27T06:28:04.826Z,69.63
2023-04-27T06:29:04.808Z,69.42
2023-04-27T06:30:04.797Z,69.42
2023-04-27T06:31:04.883Z,69.45
2023-04-27T06:32:04.874Z,69.60
2023-04-27T06:33:04.808Z,69.50
2023-04-27T06:34:04.743Z,69.24
2023-04-27T06:35:04.742Z,69.13
2023-04-27T06:36:04.724Z,69.01
2023-04-27T06:37:04.722Z,68.84
2023-04-27T06:38:07.350Z,68.84
2023-04-27T06:39:04.686Z,68.56
2023-04-27T06:40:04.670Z,68.48
2023-04-27T06:41:04.671Z,68.67
2023-04-27T06:42:04.670Z,68.67
2023-04-27T06:43:04.639Z,68.64
2023-04-27T06:44:04.620Z,68.62
2023-04-27T06:45:04.618Z,68.49
2023-04-27T06:46:04.633Z,68.72
2023-04-27T06:47:04.605Z,68.68
2023-04-27T06:48:04.603Z,68.80
2023-04-27T06:49:04.552Z,68.63
2023-04-27T06:50:04.534Z,68.46
2023-04-27T06:51:04.546Z,68.22
2023-04-27T06:52:04.546Z,67.86
2023-04-27T06:53:04.511Z,67.76
2023-04-27T06:54:04.482Z,67.83
2023-04-27T06:55:04.502Z,67.66
2023-04-27T06:56:04.484Z,67.65
2023-04-27T06:57:04.452Z,67.87
2023-04-27T06:58:04.509Z,67.93
2023-04-27T06:59:04.428Z,67.78
2023-04-27T07:00:04.424Z,67.87
2023-04-27T07:01:04.419Z,67.97
2023-04-27T07:02:04.379Z,68.16
2023-04-27T07:03:04.523Z,68.41
2023-04-27T07:04:04.482Z,68.23
2023-04-27T07:05:04.397Z,68.07
2023-04-27T07:06:04.337Z,68.15
2023-04-27T07:07:04.314Z,68.02
2023-04-27T07:08:08.317Z,68.11
2023-04-27T07:09:10.421Z,68.22
2023-04-27T07:10:04.290Z,68.15
2023-04-27T07:11:04.272Z,68.14
2023-04-27T07:12:04.245Z,68.22
2023-04-27T07:13:04.858Z,68.11
2023-04-27T07:14:04.232Z,67.74
2023-04-27T07:15:04.249Z,67.61
2023-04-27T07:16:04.207Z,67.65
2023-04-27T07:17:04.194Z,67.72
2023-04-27T07:18:04.284Z,67.75
2023-04-27T07:19:04.184Z,67.52
2023-04-27T07:20:04.150Z,67.62
2023-04-27T07:21:04.133Z,67.17
2023-04-27T07:22:04.140Z,66.83
2023-04-27T07:23:04.126Z,66.71
2023-04-27T07:24:04.102Z,66.96
2023-04-27T07:25:04.084Z,67.26
2023-04-27T07:26:04.111Z,67.17
2023-04-27T07:27:04.070Z,67.25
2023-04-27T07:28:04.083Z,67.21
2023-04-27T07:29:11.232Z,66.00
2023-04-27T07:30:04.030Z,65.73
2023-04-27T07:31:04.017Z,65.71
2023-04-27T07:32:04.011Z,65.74
2023-04-27T07:33:04.019Z,66.15
2023-04-27T07:34:04.000Z,65.96
2023-04-27T07:35:03.983Z,65.98
2023-04-27T07:36:03.943Z,65.99
2023-04-27T07:37:03.983Z,66.02
2023-04-27T07:38:03.922Z,65.90
2023-04-27T07:39:03.909Z,65.88
2023-04-27T07:40:03.896Z,66.09
2023-04-27T07:41:03.880Z,66.22
2023-04-27T07:42:03.876Z,65.93
2023-04-27T07:43:03.867Z,65.71
2023-04-27T07:44:03.855Z,65.51
2023-04-27T07:45:03.837Z,65.66
2023-04-27T07:46:03.828Z,65.79
2023-04-27T07:47:03.831Z,65.86
2023-04-27T07:48:03.836Z,65.65
2023-04-27T07:49:03.813Z,65.72
2023-04-27T07:50:03.757Z,65.53
2023-04-27T07:51:03.777Z,65.62
2023-04-27T07:52:03.760Z,65.89
2023-04-27T07:53:03.727Z,65.68
2023-04-27T07:54:03.722Z,65.63
2023-04-27T07:55:03.718Z,65.12
2023-04-27T07:56:03.703Z,64.95
2023-04-27T07:57:03.678Z,65.31
2023-04-27T07:58:03.669Z,65.01
2023-04-27T07:59:03.678Z,64.89
2023-04-27T08:00:03.660Z,65.22
2023-04-27T08:01:03.656Z,65.18
2023-04-27T08:02:18.507Z,65.21
2023-04-27T08:03:03.898Z,65.26
2023-04-27T08:04:03.801Z,65.19
2023-04-27T08:05:04.014Z,65.24
2023-04-27T08:06:03.843Z,65.35
2023-04-27T08:07:04.267Z,65.12
2023-04-27T08:08:03.619Z,65.09
2023-04-27T08:09:03.541Z,64.78
2023-04-27T08:10:03.519Z,64.70
2023-04-27T08:11:03.517Z,64.88
2023-04-27T08:12:03.508Z,65.03
2023-04-27T08:13:03.515Z,64.54
2023-04-27T08:14:03.482Z,64.25
2023-04-27T08:15:03.447Z,64.49
2023-04-27T08:16:03.443Z,63.90
2023-04-27T08:17:03.655Z,63.86
2023-04-27T08:18:03.437Z,63.81
2023-04-27T08:19:03.412Z,63.77
2023-04-27T08:20:03.391Z,63.50
2023-04-27T08:21:03.374Z,63.46
2023-04-27T08:22:03.390Z,63.07
2023-04-27T08:23:03.349Z,63.11
2023-04-27T08:24:03.357Z,63.18
2023-04-27T08:25:03.336Z,63.21
2023-04-27T08:26:03.327Z,62.70
2023-04-27T08:27:03.303Z,62.38
2023-04-27T08:28:03.294Z,62.67
2023-04-27T08:29:12.044Z,62.62
2023-04-27T08:30:03.303Z,62.28
2023-04-27T08:31:03.277Z,62.57
2023-04-27T08:32:03.263Z,62.76
2023-04-27T08:33:03.247Z,62.77
2023-04-27T08:34:03.258Z,63.02
2023-04-27T08:35:03.227Z,63.03
2023-04-27T08:36:03.200Z,63.07
2023-04-27T08:37:03.176Z,63.16
2023-04-27T08:38:03.172Z,63.12
2023-04-27T08:39:03.166Z,63.00
2023-04-27T08:40:03.187Z,62.72
2023-04-27T08:41:18.096Z,62.70
2023-04-27T08:42:03.151Z,62.87
2023-04-27T08:43:03.132Z,62.63
2023-04-27T08:44:03.113Z,62.30
2023-04-27T08:45:03.137Z,62.59
2023-04-27T08:46:03.153Z,62.99
2023-04-27T08:47:03.094Z,63.14
2023-04-27T08:48:03.141Z,63.28
2023-04-27T08:49:03.036Z,63.11
2023-04-27T08:50:03.024Z,63.21
2023-04-27T08:51:03.030Z,62.84
2023-04-27T08:52:03.011Z,62.54
2023-04-27T08:53:02.998Z,62.39
2023-04-27T08:54:03.004Z,62.33
2023-04-27T08:55:02.965Z,61.88
2023-04-27T08:56:02.970Z,60.91
2023-04-27T08:57:02.954Z,60.77
2023-04-27T08:58:02.926Z,61.05
2023-04-27T08:59:02.906Z,61.15
2023-04-27T09:00:02.903Z,61.68
2023-04-27T09:01:02.902Z,61.80
2023-04-27T09:02:02.947Z,61.70
2023-04-27T09:03:03.024Z,61.86
2023-04-27T09:04:03.131Z,61.37
2023-04-27T09:05:03.030Z,60.99
2023-04-27T09:06:05.871Z,60.09
2023-04-27T09:07:02.813Z,60.15
2023-04-27T09:08:02.810Z,60.19
2023-04-27T09:09:02.865Z,60.37
2023-04-27T09:10:02.825Z,60.64
2023-04-27T09:11:02.797Z,60.98
2023-04-27T09:12:02.763Z,61.41
2023-04-27T09:13:02.747Z,61.39
2023-04-27T09:14:02.743Z,62.78
2023-04-27T09:15:02.716Z,64.03
2023-04-27T09:16:02.754Z,63.83
2023-04-27T09:17:02.686Z,63.95
2023-04-27T09:18:02.735Z,63.86
2023-04-27T09:19:02.668Z,63.72
2023-04-27T09:20:02.656Z,63.52
2023-04-27T09:21:02.710Z,63.57
2023-04-27T09:22:02.647Z,62.60
2023-04-27T09:23:02.613Z,62.36
2023-04-27T09:24:02.643Z,62.46
2023-04-27T09:25:02.666Z,62.99
2023-04-27T09:26:02.580Z,62.89
2023-04-27T09:27:02.588Z,63.19
2023-04-27T09:28:02.705Z,63.78
2023-04-27T09:29:02.579Z,64.15
2023-04-27T09:30:02.568Z,64.04
2023-04-27T09:31:02.654Z,64.27
2023-04-27T09:32:02.566Z,65.80
2023-04-27T09:33:02.654Z,65.15
2023-04-27T09:34:02.516Z,65.27
2023-04-27T09:35:02.478Z,65.48
2023-04-27T09:36:02.477Z,64.29
2023-04-27T09:37:02.496Z,62.00
2023-04-27T09:38:02.457Z,60.85
2023-04-27T09:39:02.431Z,60.51
2023-04-27T09:40:02.424Z,60.60
2023-04-27T09:41:02.399Z,60.40
2023-04-27T09:42:02.401Z,61.81
2023-04-27T09:43:02.377Z,61.79
2023-04-27T09:44:02.489Z,61.24
2023-04-27T09:45:02.389Z,61.36
2023-04-27T09:46:02.402Z,61.58
2023-04-27T09:47:02.346Z,60.83
2023-04-27T09:48:02.429Z,60.87
2023-04-27T09:49:02.306Z,61.40
2023-04-27T09:50:02.304Z,58.73
2023-04-27T09:51:02.298Z,59.21
2023-04-27T09:52:02.362Z,60.98
2023-04-27T09:53:02.270Z,60.98
2023-04-27T09:54:02.261Z,60.10
2023-04-27T09:55:11.690Z,60.21
2023-04-27T09:56:02.463Z,60.87
2023-04-27T09:57:02.232Z,61.21
2023-04-27T09:58:02.238Z,61.38
2023-04-27T09:59:03.176Z,61.51
2023-04-27T10:00:02.199Z,61.18
2023-04-27T10:01:02.272Z,61.70
2023-04-27T10:02:10.084Z,61.27
2023-04-27T10:03:02.272Z,60.92
2023-04-27T10:04:02.228Z,60.41
2023-04-27T10:05:02.152Z,60.50
2023-04-27T10:06:02.133Z,59.78
2023-04-27T10:07:02.130Z,59.27
2023-04-27T10:08:02.110Z,61.18
2023-04-27T10:09:02.064Z,61.76
2023-04-27T10:10:02.045Z,61.96
2023-04-27T10:11:02.054Z,58.94
2023-04-27T10:12:02.036Z,58.67
2023-04-27T10:13:02.109Z,57.50
2023-04-27T10:14:02.005Z,59.81
2023-04-27T10:15:01.973Z,60.57
2023-04-27T10:16:01.977Z,60.92
2023-04-27T10:17:02.080Z,59.79
2023-04-27T10:18:01.993Z,60.40
2023-04-27T10:19:01.932Z,60.65
2023-04-27T10:20:01.943Z,60.99
2023-04-27T10:21:01.893Z,60.90
2023-04-27T10:22:01.913Z,59.53
2023-04-27T10:23:01.917Z,59.59
2023-04-27T10:24:01.876Z,58.97
2023-04-27T10:25:01.847Z,58.10
2023-04-27T10:26:01.836Z,59.00
2023-04-27T10:27:01.823Z,58.58
2023-04-27T10:28:01.816Z,59.92
2023-04-27T10:29:01.841Z,60.37
2023-04-27T10:30:01.801Z,59.83
2023-04-27T10:31:01.828Z,58.46
2023-04-27T10:32:01.760Z,57.49
2023-04-27T10:33:01.861Z,58.15
2023-04-27T10:34:01.739Z,57.92
2023-04-27T10:35:01.724Z,59.41
2023-04-27T10:36:01.724Z,56.88
2023-04-27T10:37:01.696Z,59.09
2023-04-27T10:38:01.694Z,59.71
2023-04-27T10:39:01.681Z,59.65
2023-04-27T10:40:01.664Z,59.24
2023-04-27T10:41:01.778Z,59.25
2023-04-27T10:42:01.635Z,60.13
2023-04-27T10:43:01.615Z,60.00
2023-04-27T10:44:01.630Z,59.21
2023-04-27T10:45:01.600Z,59.71
2023-04-27T10:46:01.628Z,59.27
2023-04-27T10:47:01.622Z,58.33
2023-04-27T10:48:01.816Z,57.81
2023-04-27T10:49:01.533Z,58.30
2023-04-27T10:50:01.541Z,58.99
2023-04-27T10:51:01.549Z,58.23
2023-04-27T10:52:01.490Z,59.47
2023-04-27T10:53:01.482Z,59.59
2023-04-27T10:54:01.496Z,59.52
2023-04-27T10:55:01.461Z,59.65
2023-04-27T10:56:01.440Z,59.51
2023-04-27T10:57:01.458Z,59.34
2023-04-27T10:58:01.420Z,59.70
2023-04-27T10:59:01.412Z,59.12
2023-04-27T11:00:01.484Z,59.40
2023-04-27T11:01:01.366Z,60.44
2023-04-27T11:02:01.429Z,60.52
2023-04-27T11:03:01.440Z,60.29
2023-04-27T11:04:01.368Z,60.40
2023-04-27T11:05:01.504Z,59.11
2023-04-27T11:06:01.323Z,59.43
2023-04-27T11:07:01.311Z,57.63
2023-04-27T11:08:01.289Z,57.34
2023-04-27T11:09:01.264Z,57.23
2023-04-27T11:10:01.275Z,57.43
2023-04-27T11:11:01.260Z,56.37
2023-04-27T11:12:01.228Z,55.20
2023-04-27T11:13:01.283Z,55.52
2023-04-27T11:14:01.193Z,56.60
2023-04-27T11:15:01.249Z,56.22
2023-04-27T11:16:01.278Z,54.13
2023-04-27T11:17:01.169Z,54.83
2023-04-27T11:18:02.271Z,56.10
2023-04-27T11:19:01.175Z,56.85
2023-04-27T11:20:01.132Z,55.98
2023-04-27T11:21:01.164Z,57.42
2023-04-27T11:22:01.094Z,56.65
2023-04-27T11:23:01.092Z,55.62
2023-04-27T11:24:01.114Z,55.45
2023-04-27T11:25:02.012Z,57.06
2023-04-27T11:26:01.054Z,57.35
2023-04-27T11:27:01.052Z,58.29
2023-04-27T11:28:01.611Z,58.33
2023-04-27T11:29:01.015Z,58.77
2023-04-27T11:30:00.990Z,56.93
2023-04-27T11:31:01.037Z,55.93
2023-04-27T11:32:01.081Z,55.31
2023-04-27T11:33:00.998Z,55.69
2023-04-27T11:34:00.971Z,56.13
2023-04-27T11:35:00.915Z,55.80
2023-04-27T11:36:00.922Z,56.83
2023-04-27T11:37:10.688Z,57.32
2023-04-27T11:38:00.919Z,56.02
2023-04-27T11:39:00.880Z,57.54
2023-04-27T11:40:00.858Z,57.58
2023-04-27T11:41:00.837Z,57.03
2023-04-27T11:42:00.846Z,56.08
2023-04-27T11:43:00.813Z,55.85
2023-04-27T11:44:00.796Z,55.87
2023-04-27T11:45:00.791Z,55.67
2023-04-27T11:46:00.800Z,54.97
2023-04-27T11:47:00.797Z,55.59
2023-04-27T11:48:00.783Z,55.45
2023-04-27T11:49:00.763Z,54.94
2023-04-27T11:50:00.729Z,55.61
2023-04-27T11:51:00.723Z,55.43
2023-04-27T11:52:00.715Z,53.70
2023-04-27T11:53:00.693Z,54.46
2023-04-27T11:54:00.654Z,55.25
2023-04-27T11:55:00.642Z,55.57
2023-04-27T11:56:00.659Z,56.17
2023-04-27T11:57:01.352Z,55.88
2023-04-27T11:58:00.697Z,55.97
2023-04-27T11:59:00.633Z,55.42
2023-04-27T12:00:00.717Z,55.94
2023-04-27T12:01:00.566Z,57.14
2023-04-27T12:02:00.766Z,56.99
2023-04-27T12:03:00.806Z,57.73
2023-04-27T12:04:02.383Z,56.89
2023-04-27T12:05:00.816Z,54.02
2023-04-27T12:06:16.106Z,54.81
2023-04-27T12:07:00.508Z,55.98
2023-04-27T12:08:00.806Z,55.90
2023-04-27T12:09:00.451Z,56.80
2023-04-27T12:10:01.069Z,56.10
2023-04-27T12:11:00.444Z,55.58
2023-04-27T12:12:00.449Z,56.45
2023-04-27T12:13:00.405Z,56.64
2023-04-27T12:14:00.410Z,56.43
2023-04-27T12:15:00.382Z,56.26
2023-04-27T12:16:01.108Z,57.20
2023-04-27T12:17:00.404Z,55.63
2023-04-27T12:18:00.413Z,56.48
2023-04-27T12:19:00.342Z,54.77
2023-04-27T12:20:00.342Z,54.21
2023-04-27T12:21:03.054Z,54.98
2023-04-27T12:22:00.279Z,55.17
2023-04-27T12:23:01.191Z,54.09
2023-04-27T12:24:00.251Z,54.49
2023-04-27T12:25:00.255Z,54.60
2023-04-27T12:26:00.235Z,54.76
2023-04-27T12:27:00.213Z,54.92
2023-04-27T12:28:00.222Z,54.42
2023-04-27T12:29:00.195Z,55.25
2023-04-27T12:30:00.214Z,54.97
2023-04-27T12:31:01.928Z,55.07
2023-04-27T12:32:00.259Z,54.20
2023-04-27T12:33:00.239Z,53.96
2023-04-27T12:34:00.176Z,54.43
2023-04-27T12:35:00.135Z,54.14
2023-04-27T12:36:00.169Z,55.51
2023-04-27T12:37:00.111Z,54.00
2023-04-27T12:38:00.135Z,54.31
2023-04-27T12:39:00.060Z,55.24
2023-04-27T12:40:00.208Z,56.46
2023-04-27T12:41:00.037Z,55.45
2023-04-27T12:42:00.076Z,55.68
2023-04-27T12:43:01.196Z,56.50
2023-04-27T12:44:00.019Z,57.04
2023-04-27T12:44:59.994Z,54.63
2023-04-27T12:45:59.999Z,54.05
2023-04-27T12:46:59.972Z,55.05
2023-04-27T12:48:03.924Z,54.26
2023-04-27T12:48:59.952Z,54.56
2023-04-27T12:49:59.903Z,54.25
2023-04-27T12:50:59.897Z,54.81
2023-04-27T12:51:59.912Z,54.73